sensor_id;sensor_type;location;lat;lon;timestamp;P1;durP1;ratioP1;P2;durP2;ratioP2
9842;SDS011;4960;48.736;9.108;2022-10-16T00:01:06;2.10;;;0.93;;
9842;SDS011;4960;48.736;9.108;2022-10-16T00:03:34;3.43;;;1.20;;
9842;SDS011;4960;48.736;9.108;2022-10-16T00:06:01;3.80;;;0.93;;
9842;SDS011;4960;48.736;9.108;2022-10-16T00:08:30;1.33;;;1.00;;
9842;SDS011;4960;48.736;9.108;2022-10-16T00:11:01;1.30;;;1.00;;
9842;SDS011;4960;48.736;9.108;2022-10-16T00:13:29;2.13;;;0.93;;
9842;SDS011;4960;48.736;9.108;2022-10-16T00:15:56;0.87;;;0.87;;
9842;SDS011;4960;48.736;9.108;2022-10-16T00:18:24;1.07;;;0.97;;
9842;SDS011;4960;48.736;9.108;2022-10-16T00:20:52;3.03;;;1.10;;
9842;SDS011;4960;48.736;9.108;2022-10-16T00:23:19;3.10;;;1.20;;
9842;SDS011;4960;48.736;9.108;2022-10-16T00:25:55;0.83;;;0.80;;
9842;SDS011;4960;48.736;9.108;2022-10-16T00:28:22;1.00;;;0.90;;
9842;SDS011;4960;48.736;9.108;2022-10-16T00:30:50;6.40;;;1.30;;
9842;SDS011;4960;48.736;9.108;2022-10-16T00:33:17;1.20;;;1.10;;
9842;SDS011;4960;48.736;9.108;2022-10-16T00:35:44;1.00;;;0.90;;
9842;SDS011;4960;48.736;9.108;2022-10-16T00:38:11;3.77;;;1.17;;
9842;SDS011;4960;48.736;9.108;2022-10-16T00:40:38;1.80;;;0.90;;
9842;SDS011;4960;48.736;9.108;2022-10-16T00:43:10;1.47;;;1.13;;
9842;SDS011;4960;48.736;9.108;2022-10-16T00:45:39;3.33;;;0.90;;
9842;SDS011;4960;48.736;9.108;2022-10-16T00:48:06;1.10;;;1.00;;
9842;SDS011;4960;48.736;9.108;2022-10-16T00:50:37;1.80;;;1.03;;
9842;SDS011;4960;48.736;9.108;2022-10-16T00:53:08;2.33;;;0.90;;
9842;SDS011;4960;48.736;9.108;2022-10-16T00:55:35;1.70;;;1.10;;
9842;SDS011;4960;48.736;9.108;2022-10-16T00:58:02;0.93;;;0.93;;
9842;SDS011;4960;48.736;9.108;2022-10-16T01:00:31;1.00;;;0.90;;
9842;SDS011;4960;48.736;9.108;2022-10-16T01:02:59;1.43;;;1.20;;
9842;SDS011;4960;48.736;9.108;2022-10-16T01:05:30;2.83;;;1.07;;
9842;SDS011;4960;48.736;9.108;2022-10-16T01:08:01;1.43;;;0.90;;
9842;SDS011;4960;48.736;9.108;2022-10-16T01:10:33;2.17;;;0.87;;
9842;SDS011;4960;48.736;9.108;2022-10-16T01:13:03;3.20;;;1.17;;
9842;SDS011;4960;48.736;9.108;2022-10-16T01:15:34;0.80;;;0.80;;
9842;SDS011;4960;48.736;9.108;2022-10-16T01:18:04;1.47;;;0.90;;
9842;SDS011;4960;48.736;9.108;2022-10-16T01:20:33;2.23;;;1.00;;
9842;SDS011;4960;48.736;9.108;2022-10-16T01:23:05;0.90;;;0.90;;
9842;SDS011;4960;48.736;9.108;2022-10-16T01:25:39;1.73;;;0.90;;
9842;SDS011;4960;48.736;9.108;2022-10-16T01:28:11;2.10;;;0.80;;
9842;SDS011;4960;48.736;9.108;2022-10-16T01:30:40;1.73;;;1.23;;
9842;SDS011;4960;48.736;9.108;2022-10-16T01:33:10;1.10;;;1.00;;
9842;SDS011;4960;48.736;9.108;2022-10-16T01:35:41;6.63;;;1.20;;
9842;SDS011;4960;48.736;9.108;2022-10-16T01:38:10;5.83;;;1.10;;
9842;SDS011;4960;48.736;9.108;2022-10-16T01:40:39;3.67;;;1.07;;
9842;SDS011;4960;48.736;9.108;2022-10-16T01:43:10;1.57;;;0.93;;
9842;SDS011;4960;48.736;9.108;2022-10-16T01:45:40;1.63;;;1.03;;
9842;SDS011;4960;48.736;9.108;2022-10-16T01:48:08;3.70;;;1.03;;
9842;SDS011;4960;48.736;9.108;2022-10-16T01:50:37;1.57;;;0.97;;
9842;SDS011;4960;48.736;9.108;2022-10-16T01:53:05;1.87;;;1.10;;
9842;SDS011;4960;48.736;9.108;2022-10-16T01:55:35;1.97;;;1.20;;
9842;SDS011;4960;48.736;9.108;2022-10-16T01:58:02;4.33;;;1.10;;
9842;SDS011;4960;48.736;9.108;2022-10-16T02:00:30;1.97;;;1.10;;
9842;SDS011;4960;48.736;9.108;2022-10-16T02:02:59;3.27;;;1.00;;
9842;SDS011;4960;48.736;9.108;2022-10-16T02:05:29;7.30;;;1.20;;
9842;SDS011;4960;48.736;9.108;2022-10-16T02:07:57;2.27;;;0.90;;
9842;SDS011;4960;48.736;9.108;2022-10-16T02:10:25;1.20;;;0.90;;
9842;SDS011;4960;48.736;9.108;2022-10-16T02:12:56;3.53;;;0.80;;
9842;SDS011;4960;48.736;9.108;2022-10-16T02:15:24;4.30;;;1.00;;
9842;SDS011;4960;48.736;9.108;2022-10-16T02:17:51;3.83;;;1.00;;
9842;SDS011;4960;48.736;9.108;2022-10-16T02:20:20;1.33;;;1.00;;
9842;SDS011;4960;48.736;9.108;2022-10-16T02:22:51;3.97;;;1.03;;
9842;SDS011;4960;48.736;9.108;2022-10-16T02:25:20;2.80;;;1.07;;
9842;SDS011;4960;48.736;9.108;2022-10-16T02:27:50;6.53;;;1.10;;
9842;SDS011;4960;48.736;9.108;2022-10-16T02:30:21;3.20;;;1.17;;
9842;SDS011;4960;48.736;9.108;2022-10-16T02:32:50;3.53;;;1.17;;
9842;SDS011;4960;48.736;9.108;2022-10-16T02:35:20;1.33;;;0.80;;
9842;SDS011;4960;48.736;9.108;2022-10-16T02:37:48;2.13;;;0.80;;
9842;SDS011;4960;48.736;9.108;2022-10-16T02:40:16;0.80;;;0.80;;
9842;SDS011;4960;48.736;9.108;2022-10-16T02:42:44;2.83;;;1.20;;
9842;SDS011;4960;48.736;9.108;2022-10-16T02:45:11;1.30;;;1.20;;
9842;SDS011;4960;48.736;9.108;2022-10-16T02:47:38;1.13;;;0.87;;
9842;SDS011;4960;48.736;9.108;2022-10-16T02:50:05;3.13;;;0.90;;
9842;SDS011;4960;48.736;9.108;2022-10-16T02:52:34;1.17;;;0.90;;
9842;SDS011;4960;48.736;9.108;2022-10-16T02:55:01;2.90;;;0.90;;
9842;SDS011;4960;48.736;9.108;2022-10-16T02:57:28;4.30;;;0.80;;
9842;SDS011;4960;48.736;9.108;2022-10-16T02:59:56;0.70;;;0.70;;
9842;SDS011;4960;48.736;9.108;2022-10-16T03:02:23;2.57;;;0.80;;
9842;SDS011;4960;48.736;9.108;2022-10-16T03:04:50;1.50;;;0.87;;
9842;SDS011;4960;48.736;9.108;2022-10-16T03:07:17;1.07;;;0.80;;
9842;SDS011;4960;48.736;9.108;2022-10-16T03:09:46;1.00;;;0.80;;
9842;SDS011;4960;48.736;9.108;2022-10-16T03:12:13;0.70;;;0.70;;
9842;SDS011;4960;48.736;9.108;2022-10-16T03:14:40;2.00;;;0.73;;
9842;SDS011;4960;48.736;9.108;2022-10-16T03:17:07;5.23;;;1.20;;
9842;SDS011;4960;48.736;9.108;2022-10-16T03:19:34;0.80;;;0.80;;
9842;SDS011;4960;48.736;9.108;2022-10-16T03:22:01;1.07;;;0.90;;
9842;SDS011;4960;48.736;9.108;2022-10-16T03:24:29;3.83;;;0.87;;
9842;SDS011;4960;48.736;9.108;2022-10-16T03:26:57;1.23;;;0.80;;
9842;SDS011;4960;48.736;9.108;2022-10-16T03:29:25;1.23;;;0.87;;
9842;SDS011;4960;48.736;9.108;2022-10-16T03:31:54;2.07;;;0.87;;
9842;SDS011;4960;48.736;9.108;2022-10-16T03:34:21;2.17;;;0.70;;
9842;SDS011;4960;48.736;9.108;2022-10-16T03:36:49;2.97;;;1.00;;
9842;SDS011;4960;48.736;9.108;2022-10-16T03:39:16;1.67;;;0.87;;
9842;SDS011;4960;48.736;9.108;2022-10-16T03:41:43;4.37;;;1.07;;
9842;SDS011;4960;48.736;9.108;2022-10-16T03:44:12;2.60;;;0.73;;
9842;SDS011;4960;48.736;9.108;2022-10-16T03:46:39;1.57;;;0.80;;
9842;SDS011;4960;48.736;9.108;2022-10-16T03:49:07;4.10;;;1.70;;
9842;SDS011;4960;48.736;9.108;2022-10-16T03:51:34;8.80;;;4.60;;
9842;SDS011;4960;48.736;9.108;2022-10-16T03:54:01;11.50;;;7.97;;
9842;SDS011;4960;48.736;9.108;2022-10-16T03:56:28;25.47;;;10.60;;
9842;SDS011;4960;48.736;9.108;2022-10-16T03:58:55;12.70;;;8.00;;
9842;SDS011;4960;48.736;9.108;2022-10-16T04:01:24;8.67;;;4.30;;
9842;SDS011;4960;48.736;9.108;2022-10-16T04:03:51;5.27;;;3.20;;
9842;SDS011;4960;48.736;9.108;2022-10-16T04:06:18;3.77;;;2.50;;
9842;SDS011;4960;48.736;9.108;2022-10-16T04:08:45;5.10;;;1.67;;
9842;SDS011;4960;48.736;9.108;2022-10-16T04:11:12;4.07;;;1.17;;
9842;SDS011;4960;48.736;9.108;2022-10-16T04:13:40;2.67;;;1.07;;
9842;SDS011;4960;48.736;9.108;2022-10-16T04:16:07;4.37;;;1.00;;
9842;SDS011;4960;48.736;9.108;2022-10-16T04:18:35;0.70;;;0.70;;
9842;SDS011;4960;48.736;9.108;2022-10-16T04:21:03;2.27;;;0.90;;
9842;SDS011;4960;48.736;9.108;2022-10-16T04:23:30;1.33;;;1.13;;
9842;SDS011;4960;48.736;9.108;2022-10-16T04:25:58;2.83;;;1.10;;
9842;SDS011;4960;48.736;9.108;2022-10-16T04:28:26;4.00;;;1.07;;
9842;SDS011;4960;48.736;9.108;2022-10-16T04:30:53;3.30;;;0.90;;
9842;SDS011;4960;48.736;9.108;2022-10-16T04:33:20;2.27;;;0.80;;
9842;SDS011;4960;48.736;9.108;2022-10-16T04:35:55;1.17;;;1.03;;
9842;SDS011;4960;48.736;9.108;2022-10-16T04:38:22;1.53;;;0.90;;
9842;SDS011;4960;48.736;9.108;2022-10-16T04:40:49;2.67;;;0.93;;
9842;SDS011;4960;48.736;9.108;2022-10-16T04:43:16;1.30;;;1.00;;
9842;SDS011;4960;48.736;9.108;2022-10-16T04:45:44;1.27;;;0.70;;
9842;SDS011;4960;48.736;9.108;2022-10-16T04:48:11;1.20;;;1.03;;
9842;SDS011;4960;48.736;9.108;2022-10-16T04:50:38;3.43;;;1.00;;
9842;SDS011;4960;48.736;9.108;2022-10-16T04:53:06;6.20;;;0.80;;
9842;SDS011;4960;48.736;9.108;2022-10-16T04:55:34;0.90;;;0.90;;
9842;SDS011;4960;48.736;9.108;2022-10-16T04:58:01;3.17;;;0.93;;
9842;SDS011;4960;48.736;9.108;2022-10-16T05:00:28;1.37;;;0.80;;
9842;SDS011;4960;48.736;9.108;2022-10-16T05:02:55;3.73;;;1.30;;
9842;SDS011;4960;48.736;9.108;2022-10-16T05:05:24;2.30;;;0.93;;
9842;SDS011;4960;48.736;9.108;2022-10-16T05:07:51;0.90;;;0.90;;
9842;SDS011;4960;48.736;9.108;2022-10-16T05:10:20;1.23;;;0.80;;
9842;SDS011;4960;48.736;9.108;2022-10-16T05:12:47;1.30;;;1.00;;
9842;SDS011;4960;48.736;9.108;2022-10-16T05:15:15;2.30;;;1.00;;
9842;SDS011;4960;48.736;9.108;2022-10-16T05:17:42;0.80;;;0.70;;
9842;SDS011;4960;48.736;9.108;2022-10-16T05:20:09;3.80;;;0.90;;
9842;SDS011;4960;48.736;9.108;2022-10-16T05:22:36;2.47;;;0.83;;
9842;SDS011;4960;48.736;9.108;2022-10-16T05:25:03;4.10;;;0.80;;
9842;SDS011;4960;48.736;9.108;2022-10-16T05:27:32;1.00;;;0.70;;
9842;SDS011;4960;48.736;9.108;2022-10-16T05:29:59;1.63;;;0.97;;
9842;SDS011;4960;48.736;9.108;2022-10-16T05:32:26;2.30;;;1.07;;
9842;SDS011;4960;48.736;9.108;2022-10-16T05:34:53;3.50;;;1.00;;
9842;SDS011;4960;48.736;9.108;2022-10-16T05:37:20;1.30;;;1.20;;
9842;SDS011;4960;48.736;9.108;2022-10-16T05:39:48;2.27;;;1.10;;
9842;SDS011;4960;48.736;9.108;2022-10-16T05:42:15;8.20;;;1.00;;
9842;SDS011;4960;48.736;9.108;2022-10-16T05:44:43;2.00;;;1.13;;
9842;SDS011;4960;48.736;9.108;2022-10-16T05:47:12;1.63;;;1.00;;
9842;SDS011;4960;48.736;9.108;2022-10-16T05:49:39;2.97;;;1.30;;
9842;SDS011;4960;48.736;9.108;2022-10-16T05:52:06;1.37;;;1.10;;
9842;SDS011;4960;48.736;9.108;2022-10-16T05:54:33;4.77;;;1.03;;
9842;SDS011;4960;48.736;9.108;2022-10-16T05:57:00;6.73;;;1.20;;
9842;SDS011;4960;48.736;9.108;2022-10-16T05:59:27;3.20;;;1.20;;
9842;SDS011;4960;48.736;9.108;2022-10-16T06:01:56;1.40;;;1.30;;
9842;SDS011;4960;48.736;9.108;2022-10-16T06:04:23;1.20;;;1.00;;
9842;SDS011;4960;48.736;9.108;2022-10-16T06:06:50;3.87;;;1.03;;
9842;SDS011;4960;48.736;9.108;2022-10-16T06:09:17;1.60;;;1.00;;
9842;SDS011;4960;48.736;9.108;2022-10-16T06:11:44;3.47;;;1.40;;
9842;SDS011;4960;48.736;9.108;2022-10-16T06:14:11;3.07;;;1.10;;
9842;SDS011;4960;48.736;9.108;2022-10-16T06:16:38;2.07;;;1.30;;
9842;SDS011;4960;48.736;9.108;2022-10-16T06:19:07;4.23;;;1.40;;
9842;SDS011;4960;48.736;9.108;2022-10-16T06:21:34;4.00;;;1.30;;
9842;SDS011;4960;48.736;9.108;2022-10-16T06:24:01;1.40;;;1.00;;
9842;SDS011;4960;48.736;9.108;2022-10-16T06:26:29;3.83;;;1.23;;
9842;SDS011;4960;48.736;9.108;2022-10-16T06:28:58;3.40;;;1.10;;
9842;SDS011;4960;48.736;9.108;2022-10-16T06:31:26;2.70;;;0.90;;
9842;SDS011;4960;48.736;9.108;2022-10-16T06:33:56;6.23;;;0.90;;
9842;SDS011;4960;48.736;9.108;2022-10-16T06:36:25;2.83;;;1.10;;
9842;SDS011;4960;48.736;9.108;2022-10-16T06:38:52;0.97;;;0.73;;
9842;SDS011;4960;48.736;9.108;2022-10-16T06:41:20;3.90;;;1.13;;
9842;SDS011;4960;48.736;9.108;2022-10-16T06:43:48;3.63;;;0.90;;
9842;SDS011;4960;48.736;9.108;2022-10-16T06:46:16;1.13;;;1.00;;
9842;SDS011;4960;48.736;9.108;2022-10-16T06:48:43;2.97;;;1.00;;
9842;SDS011;4960;48.736;9.108;2022-10-16T06:51:11;2.20;;;0.90;;
9842;SDS011;4960;48.736;9.108;2022-10-16T06:53:41;3.07;;;1.00;;
9842;SDS011;4960;48.736;9.108;2022-10-16T06:56:08;2.10;;;1.00;;
9842;SDS011;4960;48.736;9.108;2022-10-16T06:58:36;0.80;;;0.77;;
9842;SDS011;4960;48.736;9.108;2022-10-16T07:01:03;3.50;;;1.00;;
9842;SDS011;4960;48.736;9.108;2022-10-16T07:03:31;3.37;;;1.00;;
9842;SDS011;4960;48.736;9.108;2022-10-16T07:06:00;1.00;;;0.80;;
9842;SDS011;4960;48.736;9.108;2022-10-16T07:08:30;1.83;;;0.90;;
9842;SDS011;4960;48.736;9.108;2022-10-16T07:10:59;2.13;;;0.97;;
9842;SDS011;4960;48.736;9.108;2022-10-16T07:13:26;3.07;;;1.20;;
9842;SDS011;4960;48.736;9.108;2022-10-16T07:15:54;2.90;;;1.07;;
9842;SDS011;4960;48.736;9.108;2022-10-16T07:18:21;2.53;;;0.97;;
9842;SDS011;4960;48.736;9.108;2022-10-16T07:20:51;1.30;;;1.07;;
9842;SDS011;4960;48.736;9.108;2022-10-16T07:23:18;3.43;;;1.17;;
9842;SDS011;4960;48.736;9.108;2022-10-16T07:25:45;1.23;;;1.00;;
9842;SDS011;4960;48.736;9.108;2022-10-16T07:28:14;1.30;;;1.00;;
9842;SDS011;4960;48.736;9.108;2022-10-16T07:30:41;2.47;;;0.90;;
9842;SDS011;4960;48.736;9.108;2022-10-16T07:33:08;1.63;;;0.90;;
9842;SDS011;4960;48.736;9.108;2022-10-16T07:35:35;2.57;;;1.00;;
9842;SDS011;4960;48.736;9.108;2022-10-16T07:38:02;3.33;;;1.17;;
9842;SDS011;4960;48.736;9.108;2022-10-16T07:40:29;4.10;;;0.97;;
9842;SDS011;4960;48.736;9.108;2022-10-16T07:42:56;2.80;;;0.87;;
9842;SDS011;4960;48.736;9.108;2022-10-16T07:45:25;6.23;;;0.97;;
9842;SDS011;4960;48.736;9.108;2022-10-16T07:47:52;2.47;;;1.07;;
9842;SDS011;4960;48.736;9.108;2022-10-16T07:50:19;7.27;;;1.00;;
9842;SDS011;4960;48.736;9.108;2022-10-16T07:52:46;1.60;;;0.93;;
9842;SDS011;4960;48.736;9.108;2022-10-16T07:55:13;4.40;;;1.10;;
9842;SDS011;4960;48.736;9.108;2022-10-16T07:57:41;2.93;;;1.13;;
9842;SDS011;4960;48.736;9.108;2022-10-16T08:00:08;2.63;;;1.00;;
9842;SDS011;4960;48.736;9.108;2022-10-16T08:02:39;2.57;;;1.40;;
9842;SDS011;4960;48.736;9.108;2022-10-16T08:05:07;1.40;;;1.30;;
9842;SDS011;4960;48.736;9.108;2022-10-16T08:07:35;2.00;;;1.40;;
9842;SDS011;4960;48.736;9.108;2022-10-16T08:10:02;2.20;;;1.83;;
9842;SDS011;4960;48.736;9.108;2022-10-16T08:12:29;3.63;;;1.50;;
9842;SDS011;4960;48.736;9.108;2022-10-16T08:14:56;2.20;;;1.53;;
9842;SDS011;4960;48.736;9.108;2022-10-16T08:17:24;4.10;;;1.67;;
9842;SDS011;4960;48.736;9.108;2022-10-16T08:19:52;2.77;;;1.37;;
9842;SDS011;4960;48.736;9.108;2022-10-16T08:22:19;4.27;;;3.30;;
9842;SDS011;4960;48.736;9.108;2022-10-16T08:24:46;4.70;;;3.60;;
9842;SDS011;4960;48.736;9.108;2022-10-16T08:27:14;3.67;;;1.50;;
9842;SDS011;4960;48.736;9.108;2022-10-16T08:29:41;3.70;;;1.50;;
9842;SDS011;4960;48.736;9.108;2022-10-16T08:32:08;4.40;;;1.10;;
9842;SDS011;4960;48.736;9.108;2022-10-16T08:34:35;2.63;;;1.17;;
9842;SDS011;4960;48.736;9.108;2022-10-16T08:37:03;2.27;;;0.87;;
9842;SDS011;4960;48.736;9.108;2022-10-16T08:39:32;1.20;;;1.10;;
9842;SDS011;4960;48.736;9.108;2022-10-16T08:42:03;6.03;;;4.27;;
9842;SDS011;4960;48.736;9.108;2022-10-16T08:44:40;7.80;;;3.53;;
9842;SDS011;4960;48.736;9.108;2022-10-16T08:47:15;9.17;;;3.17;;
9842;SDS011;4960;48.736;9.108;2022-10-16T08:49:47;2.40;;;2.03;;
9842;SDS011;4960;48.736;9.108;2022-10-16T08:52:20;3.53;;;1.20;;
9842;SDS011;4960;48.736;9.108;2022-10-16T08:54:48;1.70;;;1.20;;
9842;SDS011;4960;48.736;9.108;2022-10-16T08:57:19;1.00;;;0.80;;
9842;SDS011;4960;48.736;9.108;2022-10-16T08:59:46;1.93;;;0.90;;
9842;SDS011;4960;48.736;9.108;2022-10-16T09:02:19;2.03;;;1.10;;
9842;SDS011;4960;48.736;9.108;2022-10-16T09:04:57;3.43;;;1.13;;
9842;SDS011;4960;48.736;9.108;2022-10-16T09:07:28;3.60;;;1.53;;
9842;SDS011;4960;48.736;9.108;2022-10-16T09:12:43;6.90;;;2.53;;
9842;SDS011;4960;48.736;9.108;2022-10-16T09:15:19;7.63;;;4.30;;
9842;SDS011;4960;48.736;9.108;2022-10-16T09:17:51;15.63;;;10.33;;
9842;SDS011;4960;48.736;9.108;2022-10-16T09:20:24;19.27;;;10.53;;
9842;SDS011;4960;48.736;9.108;2022-10-16T09:22:54;4.33;;;2.93;;
9842;SDS011;4960;48.736;9.108;2022-10-16T09:25:23;3.87;;;3.47;;
9842;SDS011;4960;48.736;9.108;2022-10-16T09:27:52;4.63;;;3.33;;
9842;SDS011;4960;48.736;9.108;2022-10-16T09:30:20;3.83;;;1.20;;
9842;SDS011;4960;48.736;9.108;2022-10-16T09:32:48;4.30;;;0.90;;
9842;SDS011;4960;48.736;9.108;2022-10-16T09:35:18;1.67;;;1.57;;
9842;SDS011;4960;48.736;9.108;2022-10-16T09:37:46;1.73;;;1.10;;
9842;SDS011;4960;48.736;9.108;2022-10-16T09:40:24;2.33;;;1.03;;
9842;SDS011;4960;48.736;9.108;2022-10-16T09:42:52;5.07;;;2.00;;
9842;SDS011;4960;48.736;9.108;2022-10-16T09:45:21;5.87;;;1.37;;
9842;SDS011;4960;48.736;9.108;2022-10-16T09:47:49;2.27;;;0.90;;
9842;SDS011;4960;48.736;9.108;2022-10-16T09:50:21;2.20;;;1.00;;
9842;SDS011;4960;48.736;9.108;2022-10-16T09:52:49;3.87;;;1.10;;
9842;SDS011;4960;48.736;9.108;2022-10-16T09:55:17;2.70;;;0.80;;
9842;SDS011;4960;48.736;9.108;2022-10-16T09:57:52;2.27;;;0.70;;
9842;SDS011;4960;48.736;9.108;2022-10-16T10:00:19;2.60;;;0.80;;
9842;SDS011;4960;48.736;9.108;2022-10-16T10:02:47;3.23;;;0.80;;
9842;SDS011;4960;48.736;9.108;2022-10-16T10:05:17;3.27;;;0.70;;
9842;SDS011;4960;48.736;9.108;2022-10-16T10:07:46;5.20;;;0.80;;
9842;SDS011;4960;48.736;9.108;2022-10-16T10:10:19;3.00;;;0.60;;
9842;SDS011;4960;48.736;9.108;2022-10-16T10:12:47;2.77;;;0.80;;
9842;SDS011;4960;48.736;9.108;2022-10-16T10:15:15;2.73;;;0.70;;
9842;SDS011;4960;48.736;9.108;2022-10-16T10:17:47;0.57;;;0.57;;
9842;SDS011;4960;48.736;9.108;2022-10-16T10:20:18;2.20;;;0.70;;
9842;SDS011;4960;48.736;9.108;2022-10-16T10:22:48;1.63;;;0.70;;
9842;SDS011;4960;48.736;9.108;2022-10-16T10:25:18;3.00;;;0.60;;
9842;SDS011;4960;48.736;9.108;2022-10-16T10:27:53;0.60;;;0.60;;
9842;SDS011;4960;48.736;9.108;2022-10-16T10:30:27;0.70;;;0.70;;
9842;SDS011;4960;48.736;9.108;2022-10-16T10:33:02;1.17;;;0.83;;
9842;SDS011;4960;48.736;9.108;2022-10-16T10:35:38;3.03;;;0.70;;
9842;SDS011;4960;48.736;9.108;2022-10-16T10:38:09;1.40;;;1.30;;
9842;SDS011;4960;48.736;9.108;2022-10-16T10:40:45;1.60;;;0.90;;
9842;SDS011;4960;48.736;9.108;2022-10-16T10:43:17;2.40;;;0.70;;
9842;SDS011;4960;48.736;9.108;2022-10-16T10:45:51;0.70;;;0.70;;
9842;SDS011;4960;48.736;9.108;2022-10-16T10:48:22;3.10;;;0.93;;
9842;SDS011;4960;48.736;9.108;2022-10-16T10:50:52;1.07;;;0.80;;
9842;SDS011;4960;48.736;9.108;2022-10-16T10:53:33;2.13;;;0.77;;
9842;SDS011;4960;48.736;9.108;2022-10-16T10:56:07;0.80;;;0.80;;
9842;SDS011;4960;48.736;9.108;2022-10-16T10:58:46;1.83;;;0.67;;
9842;SDS011;4960;48.736;9.108;2022-10-16T11:01:20;5.10;;;0.90;;
9842;SDS011;4960;48.736;9.108;2022-10-16T11:03:57;5.20;;;0.70;;
9842;SDS011;4960;48.736;9.108;2022-10-16T11:06:28;1.03;;;0.70;;
9842;SDS011;4960;48.736;9.108;2022-10-16T11:08:57;6.77;;;0.97;;
9842;SDS011;4960;48.736;9.108;2022-10-16T11:11:29;2.77;;;0.60;;
9842;SDS011;4960;48.736;9.108;2022-10-16T11:13:58;1.27;;;0.60;;
9842;SDS011;4960;48.736;9.108;2022-10-16T11:16:28;0.70;;;0.60;;
9842;SDS011;4960;48.736;9.108;2022-10-16T11:18:57;1.63;;;0.80;;
9842;SDS011;4960;48.736;9.108;2022-10-16T11:21:25;0.73;;;0.73;;
9842;SDS011;4960;48.736;9.108;2022-10-16T11:23:53;0.73;;;0.70;;
9842;SDS011;4960;48.736;9.108;2022-10-16T11:26:23;2.13;;;0.70;;
9842;SDS011;4960;48.736;9.108;2022-10-16T11:28:51;1.57;;;0.80;;
9842;SDS011;4960;48.736;9.108;2022-10-16T11:31:22;5.00;;;1.23;;
9842;SDS011;4960;48.736;9.108;2022-10-16T11:33:54;1.53;;;0.80;;
9842;SDS011;4960;48.736;9.108;2022-10-16T11:36:25;7.70;;;0.90;;
9842;SDS011;4960;48.736;9.108;2022-10-16T11:38:56;8.00;;;1.13;;
9842;SDS011;4960;48.736;9.108;2022-10-16T11:41:27;4.57;;;0.90;;
9842;SDS011;4960;48.736;9.108;2022-10-16T11:44:02;0.80;;;0.80;;
9842;SDS011;4960;48.736;9.108;2022-10-16T11:46:30;2.87;;;0.77;;
9842;SDS011;4960;48.736;9.108;2022-10-16T11:49:02;1.07;;;0.93;;
9842;SDS011;4960;48.736;9.108;2022-10-16T11:51:31;0.80;;;0.67;;
9842;SDS011;4960;48.736;9.108;2022-10-16T11:54:02;1.60;;;0.90;;
9842;SDS011;4960;48.736;9.108;2022-10-16T11:56:31;2.37;;;0.50;;
9842;SDS011;4960;48.736;9.108;2022-10-16T11:59:00;2.77;;;0.80;;
9842;SDS011;4960;48.736;9.108;2022-10-16T12:01:30;0.70;;;0.70;;
9842;SDS011;4960;48.736;9.108;2022-10-16T12:04:11;5.10;;;0.70;;
9842;SDS011;4960;48.736;9.108;2022-10-16T12:06:40;2.53;;;0.70;;
9842;SDS011;4960;48.736;9.108;2022-10-16T12:09:09;0.83;;;0.80;;
9842;SDS011;4960;48.736;9.108;2022-10-16T12:11:40;5.30;;;0.90;;
9842;SDS011;4960;48.736;9.108;2022-10-16T12:14:18;2.60;;;0.93;;
9842;SDS011;4960;48.736;9.108;2022-10-16T12:16:52;4.73;;;0.90;;
9842;SDS011;4960;48.736;9.108;2022-10-16T12:19:21;0.80;;;0.80;;
9842;SDS011;4960;48.736;9.108;2022-10-16T12:21:49;3.47;;;0.70;;
9842;SDS011;4960;48.736;9.108;2022-10-16T12:24:21;0.67;;;0.67;;
9842;SDS011;4960;48.736;9.108;2022-10-16T12:26:49;1.33;;;0.80;;
9842;SDS011;4960;48.736;9.108;2022-10-16T12:29:21;0.97;;;0.70;;
9842;SDS011;4960;48.736;9.108;2022-10-16T12:31:49;1.80;;;0.80;;
9842;SDS011;4960;48.736;9.108;2022-10-16T12:34:21;2.03;;;0.80;;
9842;SDS011;4960;48.736;9.108;2022-10-16T12:36:49;2.63;;;0.80;;
9842;SDS011;4960;48.736;9.108;2022-10-16T12:39:20;2.73;;;0.80;;
9842;SDS011;4960;48.736;9.108;2022-10-16T12:41:47;0.70;;;0.70;;
9842;SDS011;4960;48.736;9.108;2022-10-16T12:44:21;0.93;;;0.70;;
9842;SDS011;4960;48.736;9.108;2022-10-16T12:46:51;4.07;;;0.80;;
9842;SDS011;4960;48.736;9.108;2022-10-16T12:49:29;1.13;;;0.60;;
9842;SDS011;4960;48.736;9.108;2022-10-16T12:51:56;0.87;;;0.80;;
9842;SDS011;4960;48.736;9.108;2022-10-16T12:54:25;2.10;;;0.80;;
9842;SDS011;4960;48.736;9.108;2022-10-16T12:56:58;0.87;;;0.70;;
9842;SDS011;4960;48.736;9.108;2022-10-16T12:59:35;2.40;;;0.60;;
9842;SDS011;4960;48.736;9.108;2022-10-16T13:02:08;2.13;;;0.70;;
9842;SDS011;4960;48.736;9.108;2022-10-16T13:04:58;0.80;;;0.70;;
9842;SDS011;4960;48.736;9.108;2022-10-16T13:07:34;2.17;;;0.80;;
9842;SDS011;4960;48.736;9.108;2022-10-16T13:10:08;1.27;;;0.80;;
9842;SDS011;4960;48.736;9.108;2022-10-16T13:12:40;1.40;;;0.80;;
9842;SDS011;4960;48.736;9.108;2022-10-16T13:15:17;1.53;;;0.83;;
9842;SDS011;4960;48.736;9.108;2022-10-16T13:17:49;0.77;;;0.77;;
9842;SDS011;4960;48.736;9.108;2022-10-16T13:20:21;1.70;;;0.80;;
9842;SDS011;4960;48.736;9.108;2022-10-16T13:22:51;2.37;;;0.90;;
9842;SDS011;4960;48.736;9.108;2022-10-16T13:25:23;4.60;;;1.00;;
9842;SDS011;4960;48.736;9.108;2022-10-16T13:27:55;1.57;;;1.17;;
9842;SDS011;4960;48.736;9.108;2022-10-16T13:30:23;0.97;;;0.97;;
9842;SDS011;4960;48.736;9.108;2022-10-16T13:32:54;1.27;;;1.07;;
9842;SDS011;4960;48.736;9.108;2022-10-16T13:35:25;3.43;;;1.00;;
9842;SDS011;4960;48.736;9.108;2022-10-16T13:38:02;3.83;;;1.23;;
9842;SDS011;4960;48.736;9.108;2022-10-16T13:40:30;1.73;;;1.00;;
9842;SDS011;4960;48.736;9.108;2022-10-16T13:42:59;1.50;;;1.40;;
9842;SDS011;4960;48.736;9.108;2022-10-16T13:45:27;1.10;;;1.00;;
9842;SDS011;4960;48.736;9.108;2022-10-16T13:48:01;1.97;;;1.00;;
9842;SDS011;4960;48.736;9.108;2022-10-16T13:50:29;3.80;;;1.30;;
9842;SDS011;4960;48.736;9.108;2022-10-16T13:53:03;1.00;;;0.90;;
9842;SDS011;4960;48.736;9.108;2022-10-16T13:55:30;2.00;;;0.90;;
9842;SDS011;4960;48.736;9.108;2022-10-16T13:58:04;3.93;;;1.23;;
9842;SDS011;4960;48.736;9.108;2022-10-16T14:00:31;1.97;;;0.80;;
9842;SDS011;4960;48.736;9.108;2022-10-16T14:03:01;3.57;;;1.03;;
9842;SDS011;4960;48.736;9.108;2022-10-16T14:05:30;1.13;;;1.10;;
9842;SDS011;4960;48.736;9.108;2022-10-16T14:07:57;1.27;;;0.90;;
9842;SDS011;4960;48.736;9.108;2022-10-16T14:10:25;1.10;;;1.00;;
9842;SDS011;4960;48.736;9.108;2022-10-16T14:12:54;2.73;;;1.00;;
9842;SDS011;4960;48.736;9.108;2022-10-16T14:15:21;1.87;;;1.00;;
9842;SDS011;4960;48.736;9.108;2022-10-16T14:17:49;4.03;;;1.10;;
9842;SDS011;4960;48.736;9.108;2022-10-16T14:20:17;1.20;;;1.10;;
9842;SDS011;4960;48.736;9.108;2022-10-16T14:22:45;4.07;;;1.00;;
9842;SDS011;4960;48.736;9.108;2022-10-16T14:25:20;1.90;;;1.10;;
9842;SDS011;4960;48.736;9.108;2022-10-16T14:27:56;1.43;;;0.90;;
9842;SDS011;4960;48.736;9.108;2022-10-16T14:30:23;3.63;;;0.90;;
9842;SDS011;4960;48.736;9.108;2022-10-16T14:32:54;2.60;;;1.17;;
9842;SDS011;4960;48.736;9.108;2022-10-16T14:35:23;2.83;;;1.00;;
9842;SDS011;4960;48.736;9.108;2022-10-16T14:37:52;2.43;;;0.90;;
9842;SDS011;4960;48.736;9.108;2022-10-16T14:40:20;2.37;;;1.10;;
9842;SDS011;4960;48.736;9.108;2022-10-16T14:42:49;1.40;;;1.00;;
9842;SDS011;4960;48.736;9.108;2022-10-16T14:45:18;1.47;;;0.97;;
9842;SDS011;4960;48.736;9.108;2022-10-16T14:47:47;2.43;;;0.90;;
9842;SDS011;4960;48.736;9.108;2022-10-16T14:50:15;0.90;;;0.90;;
9842;SDS011;4960;48.736;9.108;2022-10-16T14:52:42;5.07;;;0.90;;
9842;SDS011;4960;48.736;9.108;2022-10-16T14:55:11;4.67;;;1.13;;
9842;SDS011;4960;48.736;9.108;2022-10-16T14:57:38;2.27;;;1.20;;
9842;SDS011;4960;48.736;9.108;2022-10-16T15:00:08;2.93;;;1.27;;
9842;SDS011;4960;48.736;9.108;2022-10-16T15:02:37;3.83;;;1.20;;
9842;SDS011;4960;48.736;9.108;2022-10-16T15:05:13;2.13;;;1.23;;
9842;SDS011;4960;48.736;9.108;2022-10-16T15:07:40;2.70;;;1.20;;
9842;SDS011;4960;48.736;9.108;2022-10-16T15:10:07;3.73;;;1.13;;
9842;SDS011;4960;48.736;9.108;2022-10-16T15:12:36;2.83;;;1.33;;
9842;SDS011;4960;48.736;9.108;2022-10-16T15:17:52;3.77;;;1.17;;
9842;SDS011;4960;48.736;9.108;2022-10-16T15:20:21;4.17;;;1.30;;
9842;SDS011;4960;48.736;9.108;2022-10-16T15:22:48;1.63;;;1.30;;
9842;SDS011;4960;48.736;9.108;2022-10-16T15:25:19;2.87;;;1.00;;
9842;SDS011;4960;48.736;9.108;2022-10-16T15:27:51;1.47;;;1.27;;
9842;SDS011;4960;48.736;9.108;2022-10-16T15:30:18;4.37;;;1.23;;
9842;SDS011;4960;48.736;9.108;2022-10-16T15:32:45;3.20;;;0.90;;